sensor_id;sensor_type;location;lat;lon;timestamp;P1;durP1;ratioP1;P2;durP2;ratioP2
70818;SDS011;58439;51.046;13.692;2022-07-01T00:00:14;17.23;;;12.35;;
70818;SDS011;58439;51.046;13.692;2022-07-01T00:02:45;22.80;;;13.10;;
70818;SDS011;58439;51.046;13.692;2022-07-01T00:05:29;19.48;;;13.30;;
70818;SDS011;58439;51.046;13.692;2022-07-01T00:08:00;22.67;;;13.40;;
70818;SDS011;58439;51.046;13.692;2022-07-01T00:10:33;20.83;;;13.27;;
70818;SDS011;58439;51.046;13.692;2022-07-01T00:13:07;18.05;;;12.95;;
70818;SDS011;58439;51.046;13.692;2022-07-01T00:15:42;19.00;;;12.43;;
70818;SDS011;58439;51.046;13.692;2022-07-01T00:18:25;20.05;;;12.88;;
70818;SDS011;58439;51.046;13.692;2022-07-01T00:20:53;18.27;;;12.63;;
70818;SDS011;58439;51.046;13.692;2022-07-01T00:23:31;21.25;;;12.68;;
70818;SDS011;58439;51.046;13.692;2022-07-01T00:26:15;19.95;;;13.80;;
70818;SDS011;58439;51.046;13.692;2022-07-01T00:29:01;21.35;;;12.93;;
70818;SDS011;58439;51.046;13.692;2022-07-01T00:31:37;18.30;;;12.73;;
70818;SDS011;58439;51.046;13.692;2022-07-01T00:34:19;18.38;;;13.88;;
70818;SDS011;58439;51.046;13.692;2022-07-01T00:36:52;22.33;;;13.25;;
70818;SDS011;58439;51.046;13.692;2022-07-01T00:39:27;25.65;;;17.50;;
70818;SDS011;58439;51.046;13.692;2022-07-01T00:42:17;18.42;;;14.02;;
70818;SDS011;58439;51.046;13.692;2022-07-01T00:44:58;21.55;;;14.02;;
70818;SDS011;58439;51.046;13.692;2022-07-01T00:47:35;18.13;;;13.87;;
70818;SDS011;58439;51.046;13.692;2022-07-01T00:50:08;21.38;;;14.88;;
70818;SDS011;58439;51.046;13.692;2022-07-01T00:52:44;21.85;;;14.85;;
70818;SDS011;58439;51.046;13.692;2022-07-01T00:55:35;22.63;;;14.90;;
70818;SDS011;58439;51.046;13.692;2022-07-01T00:58:08;19.90;;;14.18;;
70818;SDS011;58439;51.046;13.692;2022-07-01T01:01:10;20.95;;;14.32;;
70818;SDS011;58439;51.046;13.692;2022-07-01T01:03:41;19.92;;;14.95;;
70818;SDS011;58439;51.046;13.692;2022-07-01T01:06:23;19.27;;;14.32;;
70818;SDS011;58439;51.046;13.692;2022-07-01T01:08:53;20.10;;;15.23;;
70818;SDS011;58439;51.046;13.692;2022-07-01T01:11:24;21.20;;;15.93;;
70818;SDS011;58439;51.046;13.692;2022-07-01T01:13:58;20.05;;;14.55;;
70818;SDS011;58439;51.046;13.692;2022-07-01T01:16:26;21.00;;;15.38;;
70818;SDS011;58439;51.046;13.692;2022-07-01T01:19:08;18.95;;;15.40;;
70818;SDS011;58439;51.046;13.692;2022-07-01T01:21:38;27.50;;;16.02;;
70818;SDS011;58439;51.046;13.692;2022-07-01T01:24:11;19.17;;;16.08;;
70818;SDS011;58439;51.046;13.692;2022-07-01T01:26:41;20.08;;;15.13;;
70818;SDS011;58439;51.046;13.692;2022-07-01T01:29:09;27.75;;;16.95;;
70818;SDS011;58439;51.046;13.692;2022-07-01T01:31:40;24.20;;;17.15;;
70818;SDS011;58439;51.046;13.692;2022-07-01T01:34:11;21.95;;;17.40;;
70818;SDS011;58439;51.046;13.692;2022-07-01T01:36:45;20.70;;;16.10;;
70818;SDS011;58439;51.046;13.692;2022-07-01T01:39:15;20.92;;;17.45;;
70818;SDS011;58439;51.046;13.692;2022-07-01T01:41:49;24.67;;;17.60;;
70818;SDS011;58439;51.046;13.692;2022-07-01T01:44:23;25.38;;;17.08;;
70818;SDS011;58439;51.046;13.692;2022-07-01T01:46:57;28.08;;;16.50;;
70818;SDS011;58439;51.046;13.692;2022-07-01T01:49:26;23.27;;;17.35;;
70818;SDS011;58439;51.046;13.692;2022-07-01T01:51:56;23.63;;;16.60;;
70818;SDS011;58439;51.046;13.692;2022-07-01T01:54:30;22.38;;;17.20;;
70818;SDS011;58439;51.046;13.692;2022-07-01T01:57:11;24.05;;;16.90;;
70818;SDS011;58439;51.046;13.692;2022-07-01T01:59:38;25.15;;;16.70;;
70818;SDS011;58439;51.046;13.692;2022-07-01T02:02:08;21.38;;;17.02;;
70818;SDS011;58439;51.046;13.692;2022-07-01T02:04:36;21.83;;;16.40;;
70818;SDS011;58439;51.046;13.692;2022-07-01T02:07:11;22.33;;;16.48;;
70818;SDS011;58439;51.046;13.692;2022-07-01T02:09:39;22.23;;;16.88;;
70818;SDS011;58439;51.046;13.692;2022-07-01T02:12:09;21.42;;;17.00;;
70818;SDS011;58439;51.046;13.692;2022-07-01T02:14:37;19.70;;;16.48;;
70818;SDS011;58439;51.046;13.692;2022-07-01T02:17:09;20.92;;;16.40;;
70818;SDS011;58439;51.046;13.692;2022-07-01T02:19:40;22.45;;;16.33;;
70818;SDS011;58439;51.046;13.692;2022-07-01T02:22:08;21.15;;;17.05;;
70818;SDS011;58439;51.046;13.692;2022-07-01T02:24:39;25.60;;;15.75;;
70818;SDS011;58439;51.046;13.692;2022-07-01T02:27:07;18.58;;;14.95;;
70818;SDS011;58439;51.046;13.692;2022-07-01T02:29:40;19.20;;;15.05;;
70818;SDS011;58439;51.046;13.692;2022-07-01T02:32:13;21.00;;;15.55;;
70818;SDS011;58439;51.046;13.692;2022-07-01T02:34:40;19.20;;;14.68;;
70818;SDS011;58439;51.046;13.692;2022-07-01T02:37:10;22.48;;;15.05;;
70818;SDS011;58439;51.046;13.692;2022-07-01T02:39:38;22.20;;;16.33;;
70818;SDS011;58439;51.046;13.692;2022-07-01T02:42:11;19.95;;;15.60;;
70818;SDS011;58439;51.046;13.692;2022-07-01T02:44:53;23.02;;;15.68;;
70818;SDS011;58439;51.046;13.692;2022-07-01T02:47:23;22.20;;;16.05;;
70818;SDS011;58439;51.046;13.692;2022-07-01T02:49:55;22.52;;;15.90;;
70818;SDS011;58439;51.046;13.692;2022-07-01T02:52:29;23.02;;;15.55;;
70818;SDS011;58439;51.046;13.692;2022-07-01T02:55:15;21.00;;;15.40;;
70818;SDS011;58439;51.046;13.692;2022-07-01T02:57:42;27.27;;;16.38;;
70818;SDS011;58439;51.046;13.692;2022-07-01T03:00:13;19.95;;;15.82;;
70818;SDS011;58439;51.046;13.692;2022-07-01T03:02:42;24.42;;;15.77;;
70818;SDS011;58439;51.046;13.692;2022-07-01T03:05:13;21.15;;;16.63;;
70818;SDS011;58439;51.046;13.692;2022-07-01T03:10:10;21.90;;;15.95;;
70818;SDS011;58439;51.046;13.692;2022-07-01T03:15:14;20.55;;;16.48;;
70818;SDS011;58439;51.046;13.692;2022-07-01T03:17:45;20.42;;;15.68;;
70818;SDS011;58439;51.046;13.692;2022-07-01T03:20:17;22.65;;;16.90;;
70818;SDS011;58439;51.046;13.692;2022-07-01T03:22:57;21.25;;;16.50;;
70818;SDS011;58439;51.046;13.692;2022-07-01T03:25:25;20.40;;;16.60;;
70818;SDS011;58439;51.046;13.692;2022-07-01T03:27:53;21.75;;;15.63;;
70818;SDS011;58439;51.046;13.692;2022-07-01T03:30:21;20.05;;;15.80;;
70818;SDS011;58439;51.046;13.692;2022-07-01T03:32:49;18.42;;;14.60;;
70818;SDS011;58439;51.046;13.692;2022-07-01T03:35:16;27.75;;;16.15;;
70818;SDS011;58439;51.046;13.692;2022-07-01T03:38:03;27.90;;;14.82;;
70818;SDS011;58439;51.046;13.692;2022-07-01T03:40:34;23.83;;;14.57;;
70818;SDS011;58439;51.046;13.692;2022-07-01T03:43:02;18.70;;;14.70;;
70818;SDS011;58439;51.046;13.692;2022-07-01T03:45:31;19.77;;;14.55;;
70818;SDS011;58439;51.046;13.692;2022-07-01T03:47:58;17.15;;;13.98;;
70818;SDS011;58439;51.046;13.692;2022-07-01T03:50:26;19.50;;;14.20;;
70818;SDS011;58439;51.046;13.692;2022-07-01T03:52:53;19.63;;;14.18;;
70818;SDS011;58439;51.046;13.692;2022-07-01T03:55:39;19.10;;;14.35;;
70818;SDS011;58439;51.046;13.692;2022-07-01T03:58:07;21.85;;;14.70;;
70818;SDS011;58439;51.046;13.692;2022-07-01T04:00:35;21.90;;;13.43;;
70818;SDS011;58439;51.046;13.692;2022-07-01T04:03:05;21.05;;;13.70;;
70818;SDS011;58439;51.046;13.692;2022-07-01T04:05:33;21.50;;;13.20;;
70818;SDS011;58439;51.046;13.692;2022-07-01T04:08:03;17.50;;;13.48;;
70818;SDS011;58439;51.046;13.692;2022-07-01T04:10:34;22.25;;;12.60;;
70818;SDS011;58439;51.046;13.692;2022-07-01T04:13:02;19.77;;;12.95;;
70818;SDS011;58439;51.046;13.692;2022-07-01T04:15:50;17.08;;;13.05;;
70818;SDS011;58439;51.046;13.692;2022-07-01T04:18:18;17.83;;;12.80;;
70818;SDS011;58439;51.046;13.692;2022-07-01T04:20:46;17.52;;;11.77;;
70818;SDS011;58439;51.046;13.692;2022-07-01T04:24:05;22.73;;;13.15;;
70818;SDS011;58439;51.046;13.692;2022-07-01T04:26:36;20.30;;;13.05;;
70818;SDS011;58439;51.046;13.692;2022-07-01T04:29:25;17.45;;;12.27;;
70818;SDS011;58439;51.046;13.692;2022-07-01T04:32:00;18.88;;;13.15;;
70818;SDS011;58439;51.046;13.692;2022-07-01T04:34:30;19.88;;;12.35;;
70818;SDS011;58439;51.046;13.692;2022-07-01T04:37:13;17.02;;;11.85;;
70818;SDS011;58439;51.046;13.692;2022-07-01T04:45:00;19.98;;;12.73;;
70818;SDS011;58439;51.046;13.692;2022-07-01T04:47:28;20.08;;;14.10;;
70818;SDS011;58439;51.046;13.692;2022-07-01T04:50:08;18.35;;;13.32;;
70818;SDS011;58439;51.046;13.692;2022-07-01T04:52:39;24.25;;;12.85;;
70818;SDS011;58439;51.046;13.692;2022-07-01T04:55:41;19.30;;;12.63;;
70818;SDS011;58439;51.046;13.692;2022-07-01T04:58:22;25.63;;;13.80;;
70818;SDS011;58439;51.046;13.692;2022-07-01T05:00:59;18.83;;;12.45;;
70818;SDS011;58439;51.046;13.692;2022-07-01T05:03:33;24.55;;;12.95;;
70818;SDS011;58439;51.046;13.692;2022-07-01T05:06:08;18.42;;;12.32;;
70818;SDS011;58439;51.046;13.692;2022-07-01T05:08:50;28.33;;;12.05;;
70818;SDS011;58439;51.046;13.692;2022-07-01T05:11:24;17.13;;;11.63;;
70818;SDS011;58439;51.046;13.692;2022-07-01T05:13:54;16.85;;;11.05;;
70818;SDS011;58439;51.046;13.692;2022-07-01T05:16:30;10.93;;;9.70;;
70818;SDS011;58439;51.046;13.692;2022-07-01T05:19:00;15.10;;;9.70;;
70818;SDS011;58439;51.046;13.692;2022-07-01T05:21:50;13.43;;;9.38;;
70818;SDS011;58439;51.046;13.692;2022-07-01T05:24:24;16.38;;;10.13;;
70818;SDS011;58439;51.046;13.692;2022-07-01T05:26:54;12.82;;;10.13;;
70818;SDS011;58439;51.046;13.692;2022-07-01T05:29:22;15.60;;;9.43;;
70818;SDS011;58439;51.046;13.692;2022-07-01T05:31:49;12.90;;;8.80;;
70818;SDS011;58439;51.046;13.692;2022-07-01T05:34:19;11.90;;;9.40;;
70818;SDS011;58439;51.046;13.692;2022-07-01T05:36:47;13.80;;;8.23;;
70818;SDS011;58439;51.046;13.692;2022-07-01T05:41:57;15.50;;;8.40;;
70818;SDS011;58439;51.046;13.692;2022-07-01T05:44:50;16.02;;;10.50;;
70818;SDS011;58439;51.046;13.692;2022-07-01T05:50:31;12.43;;;8.80;;
70818;SDS011;58439;51.046;13.692;2022-07-01T05:52:58;13.57;;;9.93;;
70818;SDS011;58439;51.046;13.692;2022-07-01T05:55:25;17.25;;;9.48;;
70818;SDS011;58439;51.046;13.692;2022-07-01T05:57:53;16.25;;;9.25;;
70818;SDS011;58439;51.046;13.692;2022-07-01T06:00:24;15.05;;;9.10;;
70818;SDS011;58439;51.046;13.692;2022-07-01T06:02:51;17.80;;;10.40;;
70818;SDS011;58439;51.046;13.692;2022-07-01T06:05:23;14.40;;;10.32;;
70818;SDS011;58439;51.046;13.692;2022-07-01T06:16:43;18.85;;;12.13;;
70818;SDS011;58439;51.046;13.692;2022-07-01T06:28:18;12.93;;;10.82;;
70818;SDS011;58439;51.046;13.692;2022-07-01T06:32:25;15.32;;;10.40;;
70818;SDS011;58439;51.046;13.692;2022-07-01T06:41:05;16.10;;;11.10;;
70818;SDS011;58439;51.046;13.692;2022-07-01T06:51:44;16.80;;;11.75;;
70818;SDS011;58439;51.046;13.692;2022-07-01T07:32:16;20.85;;;13.73;;
70818;SDS011;58439;51.046;13.692;2022-07-01T07:36:50;20.58;;;13.32;;
70818;SDS011;58439;51.046;13.692;2022-07-01T07:40:58;17.50;;;11.63;;
70818;SDS011;58439;51.046;13.692;2022-07-01T07:45:23;20.45;;;12.05;;
70818;SDS011;58439;51.046;13.692;2022-07-01T07:48:53;21.85;;;14.23;;
70818;SDS011;58439;51.046;13.692;2022-07-01T07:56:26;22.55;;;15.38;;
70818;SDS011;58439;51.046;13.692;2022-07-01T08:00:57;24.77;;;15.43;;
70818;SDS011;58439;51.046;13.692;2022-07-01T08:03:30;27.45;;;15.40;;
70818;SDS011;58439;51.046;13.692;2022-07-01T08:11:10;23.10;;;13.30;;
70818;SDS011;58439;51.046;13.692;2022-07-01T08:39:28;28.45;;;13.60;;
70818;SDS011;58439;51.046;13.692;2022-07-01T09:00:05;22.50;;;13.13;;
70818;SDS011;58439;51.046;13.692;2022-07-01T09:07:10;23.75;;;13.85;;
70818;SDS011;58439;51.046;13.692;2022-07-01T09:45:38;24.90;;;12.57;;
70818;SDS011;58439;51.046;13.692;2022-07-01T09:49:46;20.27;;;11.57;;
70818;SDS011;58439;51.046;13.692;2022-07-01T10:01:27;22.38;;;12.45;;
70818;SDS011;58439;51.046;13.692;2022-07-01T10:04:30;20.42;;;12.40;;
70818;SDS011;58439;51.046;13.692;2022-07-01T10:37:09;11.73;;;9.50;;
70818;SDS011;58439;51.046;13.692;2022-07-01T11:18:06;10.63;;;8.77;;
70818;SDS011;58439;51.046;13.692;2022-07-01T11:22:51;11.40;;;7.97;;
70818;SDS011;58439;51.046;13.692;2022-07-01T11:40:44;19.83;;;9.90;;
70818;SDS011;58439;51.046;13.692;2022-07-01T11:49:24;8.50;;;6.30;;
70818;SDS011;58439;51.046;13.692;2022-07-01T12:06:22;7.45;;;6.05;;
70818;SDS011;58439;51.046;13.692;2022-07-01T16:32:38;8.48;;;6.53;;
70818;SDS011;58439;51.046;13.692;2022-07-01T16:36:50;8.38;;;6.82;;
70818;SDS011;58439;51.046;13.692;2022-07-01T16:40:34;9.50;;;7.07;;
70818;SDS011;58439;51.046;13.692;2022-07-01T16:45:12;8.65;;;6.20;;
70818;SDS011;58439;51.046;13.692;2022-07-01T16:49:09;7.40;;;6.70;;
70818;SDS011;58439;51.046;13.692;2022-07-01T16:53:16;8.73;;;7.90;;
70818;SDS011;58439;51.046;13.692;2022-07-01T16:56:43;9.63;;;7.40;;
70818;SDS011;58439;51.046;13.692;2022-07-01T17:04:14;10.10;;;7.47;;
70818;SDS011;58439;51.046;13.692;2022-07-01T17:20:09;9.88;;;7.97;;
70818;SDS011;58439;51.046;13.692;2022-07-01T17:23:56;8.70;;;7.53;;
70818;SDS011;58439;51.046;13.692;2022-07-01T17:27:21;13.55;;;9.73;;
70818;SDS011;58439;51.046;13.692;2022-07-01T17:34:59;11.38;;;8.52;;
70818;SDS011;58439;51.046;13.692;2022-07-01T17:41:55;12.93;;;9.48;;
70818;SDS011;58439;51.046;13.692;2022-07-01T17:45:02;11.65;;;10.43;;
70818;SDS011;58439;51.046;13.692;2022-07-01T17:48:09;12.38;;;8.90;;
70818;SDS011;58439;51.046;13.692;2022-07-01T17:51:38;10.00;;;8.38;;
70818;SDS011;58439;51.046;13.692;2022-07-01T17:54:56;15.18;;;9.73;;
70818;SDS011;58439;51.046;13.692;2022-07-01T17:57:45;10.48;;;9.32;;
70818;SDS011;58439;51.046;13.692;2022-07-01T18:00:39;12.40;;;8.98;;
70818;SDS011;58439;51.046;13.692;2022-07-01T18:08:00;10.60;;;9.50;;
70818;SDS011;58439;51.046;13.692;2022-07-01T18:17:56;12.45;;;9.30;;
70818;SDS011;58439;51.046;13.692;2022-07-01T18:20:56;13.00;;;9.85;;
70818;SDS011;58439;51.046;13.692;2022-07-01T18:24:11;10.70;;;8.60;;
70818;SDS011;58439;51.046;13.692;2022-07-01T18:31:14;12.55;;;10.10;;
70818;SDS011;58439;51.046;13.692;2022-07-01T18:39:02;15.60;;;10.80;;
70818;SDS011;58439;51.046;13.692;2022-07-01T18:42:06;13.52;;;9.98;;
70818;SDS011;58439;51.046;13.692;2022-07-01T18:45:04;14.57;;;10.95;;
70818;SDS011;58439;51.046;13.692;2022-07-01T18:51:42;15.25;;;10.48;;
70818;SDS011;58439;51.046;13.692;2022-07-01T18:58:26;16.48;;;11.32;;
70818;SDS011;58439;51.046;13.692;2022-07-01T19:02:11;20.75;;;10.90;;
70818;SDS011;58439;51.046;13.692;2022-07-01T19:06:07;15.60;;;10.68;;
70818;SDS011;58439;51.046;13.692;2022-07-01T19:09:44;16.80;;;11.85;;
70818;SDS011;58439;51.046;13.692;2022-07-01T19:12:41;14.77;;;11.05;;
70818;SDS011;58439;51.046;13.692;2022-07-01T19:16:29;16.73;;;11.45;;
70818;SDS011;58439;51.046;13.692;2022-07-01T19:19:44;15.38;;;11.68;;
70818;SDS011;58439;51.046;13.692;2022-07-01T19:23:34;13.98;;;10.68;;
70818;SDS011;58439;51.046;13.692;2022-07-01T19:30:10;15.70;;;10.93;;
70818;SDS011;58439;51.046;13.692;2022-07-01T19:32:39;16.45;;;10.65;;
70818;SDS011;58439;51.046;13.692;2022-07-01T19:46:04;13.75;;;10.35;;
70818;SDS011;58439;51.046;13.692;2022-07-01T19:49:35;21.42;;;10.52;;
70818;SDS011;58439;51.046;13.692;2022-07-01T20:01:30;10.65;;;9.00;;
70818;SDS011;58439;51.046;13.692;2022-07-01T20:05:42;13.18;;;9.52;;
70818;SDS011;58439;51.046;13.692;2022-07-01T20:13:11;12.43;;;8.73;;
70818;SDS011;58439;51.046;13.692;2022-07-01T20:17:00;13.55;;;10.07;;
70818;SDS011;58439;51.046;13.692;2022-07-01T20:28:26;14.60;;;9.20;;
70818;SDS011;58439;51.046;13.692;2022-07-01T20:31:18;13.23;;;8.90;;
70818;SDS011;58439;51.046;13.692;2022-07-01T20:38:52;14.85;;;9.80;;
70818;SDS011;58439;51.046;13.692;2022-07-01T20:42:08;14.02;;;9.57;;
70818;SDS011;58439;51.046;13.692;2022-07-01T20:45:24;12.63;;;9.45;;
70818;SDS011;58439;51.046;13.692;2022-07-01T20:48:41;15.05;;;9.55;;
70818;SDS011;58439;51.046;13.692;2022-07-01T20:51:57;11.48;;;8.60;;
70818;SDS011;58439;51.046;13.692;2022-07-01T20:55:20;19.23;;;10.65;;
70818;SDS011;58439;51.046;13.692;2022-07-01T20:58:04;15.63;;;10.20;;
70818;SDS011;58439;51.046;13.692;2022-07-01T21:01:11;13.45;;;10.50;;
70818;SDS011;58439;51.046;13.692;2022-07-01T21:04:33;13.35;;;10.52;;
70818;SDS011;58439;51.046;13.692;2022-07-01T21:14:06;14.10;;;9.77;;
70818;SDS011;58439;51.046;13.692;2022-07-01T21:20:56;11.35;;;9.05;;
70818;SDS011;58439;51.046;13.692;2022-07-01T21:27:28;16.75;;;8.68;;
70818;SDS011;58439;51.046;13.692;2022-07-01T21:30:23;10.85;;;8.60;;
70818;SDS011;58439;51.046;13.692;2022-07-01T21:33:18;13.73;;;9.07;;
70818;SDS011;58439;51.046;13.692;2022-07-01T21:39:26;15.57;;;10.30;;
70818;SDS011;58439;51.046;13.692;2022-07-01T21:43:39;13.95;;;8.80;;
70818;SDS011;58439;51.046;13.692;2022-07-01T21:46:52;13.73;;;8.35;;
70818;SDS011;58439;51.046;13.692;2022-07-01T21:49:49;12.43;;;8.82;;
70818;SDS011;58439;51.046;13.692;2022-07-01T21:53:07;12.13;;;8.80;;
70818;SDS011;58439;51.046;13.692;2022-07-01T22:02:31;10.57;;;8.00;;
70818;SDS011;58439;51.046;13.692;2022-07-01T22:06:30;12.55;;;8.05;;
70818;SDS011;58439;51.046;13.692;2022-07-01T22:10:22;16.42;;;9.25;;
70818;SDS011;58439;51.046;13.692;2022-07-01T22:25:09;12.83;;;8.67;;
70818;SDS011;58439;51.046;13.692;2022-07-01T23:01:59;11.90;;;8.10;;
70818;SDS011;58439;51.046;13.692;2022-07-01T23:23:25;11.40;;;8.10;;
70818;SDS011;58439;51.046;13.692;2022-07-01T23:31:29;10.63;;;7.22;;
70818;SDS011;58439;51.046;13.692;2022-07-01T23:38:16;10.20;;;8.55;;
70818;SDS011;58439;51.046;13.692;2022-07-01T23:44:15;11.23;;;8.75;;
70818;SDS011;58439;51.046;13.692;2022-07-01T23:47:02;12.00;;;8.65;;
70818;SDS011;58439;51.046;13.692;2022-07-01T23:49:56;11.25;;;8.25;;
70818;SDS011;58439;51.046;13.692;2022-07-01T23:52:43;10.18;;;7.80;;
70818;SDS011;58439;51.046;13.692;2022-07-01T23:56:02;11.18;;;7.72;;
70818;SDS011;58439;51.046;13.692;2022-07-01T23:59:13;9.45;;;7.60;;
